Terminal Aerodrome Forecast
Issued by NWS San Angelo, TX

Home | Current Version | Previous Version | Text Only | Print | Product List | Glossary On
Versions: 1 2 3 4 5 6 7 8 9 10 11 12 13 14 15 16 17 18 19 20
000
FTUS44 KSJT 180520
TAFSJT
TAF
KSJT 180520Z 1806/1906 35005KT P6SM BKN250
     FM181200 14002KT 2SM BR OVC010
     FM181500 17003KT 4SM BR OVC007
     FM181700 19006KT P6SM OVC025
     FM182100 20005KT P6SM BKN250=

USA.gov is the U.S. government's official web portal to all federal, state and local government web resources and services.